sensor_id;sensor_type;location;lat;lon;timestamp;P1;durP1;ratioP1;P2;durP2;ratioP2
2187;SDS011;1100;52.014;8.540;2022-12-07T00:00:52;25.52;;;11.43;;
2187;SDS011;1100;52.014;8.540;2022-12-07T00:03:17;26.47;;;11.57;;
2187;SDS011;1100;52.014;8.540;2022-12-07T00:05:42;34.43;;;12.43;;
2187;SDS011;1100;52.014;8.540;2022-12-07T00:08:08;33.33;;;13.80;;
2187;SDS011;1100;52.014;8.540;2022-12-07T00:10:33;30.47;;;13.03;;
2187;SDS011;1100;52.014;8.540;2022-12-07T00:12:59;32.95;;;12.40;;
2187;SDS011;1100;52.014;8.540;2022-12-07T00:15:25;34.87;;;12.80;;
2187;SDS011;1100;52.014;8.540;2022-12-07T00:17:50;31.90;;;13.73;;
2187;SDS011;1100;52.014;8.540;2022-12-07T00:20:16;36.70;;;14.23;;
2187;SDS011;1100;52.014;8.540;2022-12-07T00:22:41;31.87;;;13.97;;
2187;SDS011;1100;52.014;8.540;2022-12-07T00:25:06;29.57;;;13.73;;
2187;SDS011;1100;52.014;8.540;2022-12-07T00:27:31;31.70;;;13.40;;
2187;SDS011;1100;52.014;8.540;2022-12-07T00:29:57;33.13;;;14.23;;
2187;SDS011;1100;52.014;8.540;2022-12-07T00:32:22;33.27;;;14.57;;
2187;SDS011;1100;52.014;8.540;2022-12-07T00:34:47;34.33;;;13.67;;
2187;SDS011;1100;52.014;8.540;2022-12-07T00:37:13;38.20;;;14.50;;
2187;SDS011;1100;52.014;8.540;2022-12-07T00:39:38;37.40;;;13.90;;
2187;SDS011;1100;52.014;8.540;2022-12-07T00:42:03;33.13;;;13.53;;
2187;SDS011;1100;52.014;8.540;2022-12-07T00:44:29;35.20;;;14.07;;
2187;SDS011;1100;52.014;8.540;2022-12-07T00:46:54;33.20;;;12.90;;
2187;SDS011;1100;52.014;8.540;2022-12-07T00:49:20;36.15;;;13.95;;
2187;SDS011;1100;52.014;8.540;2022-12-07T00:51:47;31.23;;;12.47;;
2187;SDS011;1100;52.014;8.540;2022-12-07T00:54:13;30.88;;;12.07;;
2187;SDS011;1100;52.014;8.540;2022-12-07T00:56:39;29.50;;;13.00;;
2187;SDS011;1100;52.014;8.540;2022-12-07T00:59:04;28.07;;;11.77;;
2187;SDS011;1100;52.014;8.540;2022-12-07T01:01:31;27.43;;;10.90;;
2187;SDS011;1100;52.014;8.540;2022-12-07T01:03:58;26.38;;;11.27;;
2187;SDS011;1100;52.014;8.540;2022-12-07T01:06:26;25.23;;;10.88;;
2187;SDS011;1100;52.014;8.540;2022-12-07T01:08:51;27.50;;;10.57;;
2187;SDS011;1100;52.014;8.540;2022-12-07T01:11:18;26.08;;;10.35;;
2187;SDS011;1100;52.014;8.540;2022-12-07T01:13:46;27.23;;;11.38;;
2187;SDS011;1100;52.014;8.540;2022-12-07T01:16:12;26.67;;;11.67;;
2187;SDS011;1100;52.014;8.540;2022-12-07T01:18:39;28.42;;;11.20;;
2187;SDS011;1100;52.014;8.540;2022-12-07T01:21:06;26.00;;;11.40;;
2187;SDS011;1100;52.014;8.540;2022-12-07T01:23:32;26.65;;;10.38;;
2187;SDS011;1100;52.014;8.540;2022-12-07T01:26:00;24.08;;;10.20;;
2187;SDS011;1100;52.014;8.540;2022-12-07T01:28:28;25.50;;;10.80;;
2187;SDS011;1100;52.014;8.540;2022-12-07T01:33:26;24.63;;;10.30;;
2187;SDS011;1100;52.014;8.540;2022-12-07T01:38:55;19.70;;;9.02;;
2187;SDS011;1100;52.014;8.540;2022-12-07T01:41:26;21.92;;;8.68;;
2187;SDS011;1100;52.014;8.540;2022-12-07T01:46:33;21.87;;;8.93;;
2187;SDS011;1100;52.014;8.540;2022-12-07T01:48:59;21.57;;;8.43;;
2187;SDS011;1100;52.014;8.540;2022-12-07T01:51:25;19.67;;;7.80;;
2187;SDS011;1100;52.014;8.540;2022-12-07T01:53:52;19.55;;;8.73;;
2187;SDS011;1100;52.014;8.540;2022-12-07T01:56:18;19.90;;;9.10;;
2187;SDS011;1100;52.014;8.540;2022-12-07T01:58:49;17.63;;;7.70;;
2187;SDS011;1100;52.014;8.540;2022-12-07T02:01:14;17.48;;;7.78;;
2187;SDS011;1100;52.014;8.540;2022-12-07T02:03:41;19.27;;;8.30;;
2187;SDS011;1100;52.014;8.540;2022-12-07T02:06:09;18.70;;;8.15;;
2187;SDS011;1100;52.014;8.540;2022-12-07T02:08:37;20.80;;;7.63;;
2187;SDS011;1100;52.014;8.540;2022-12-07T02:11:03;16.92;;;6.43;;
2187;SDS011;1100;52.014;8.540;2022-12-07T02:13:33;17.92;;;7.57;;
2187;SDS011;1100;52.014;8.540;2022-12-07T02:19:20;16.57;;;6.60;;
2187;SDS011;1100;52.014;8.540;2022-12-07T02:27:46;15.65;;;5.97;;
2187;SDS011;1100;52.014;8.540;2022-12-07T02:30:27;18.00;;;6.93;;
2187;SDS011;1100;52.014;8.540;2022-12-07T02:35:36;17.65;;;6.53;;
2187;SDS011;1100;52.014;8.540;2022-12-07T02:40:40;18.27;;;5.78;;
2187;SDS011;1100;52.014;8.540;2022-12-07T02:43:23;15.75;;;6.10;;
2187;SDS011;1100;52.014;8.540;2022-12-07T02:45:53;16.97;;;5.97;;
2187;SDS011;1100;52.014;8.540;2022-12-07T02:49:15;15.93;;;5.53;;
2187;SDS011;1100;52.014;8.540;2022-12-07T02:51:41;16.42;;;5.68;;
2187;SDS011;1100;52.014;8.540;2022-12-07T02:54:12;14.68;;;4.88;;
2187;SDS011;1100;52.014;8.540;2022-12-07T03:00:07;11.80;;;4.33;;
2187;SDS011;1100;52.014;8.540;2022-12-07T03:02:53;13.48;;;4.68;;
2187;SDS011;1100;52.014;8.540;2022-12-07T03:08:14;16.50;;;4.90;;
2187;SDS011;1100;52.014;8.540;2022-12-07T03:16:18;11.13;;;4.13;;
2187;SDS011;1100;52.014;8.540;2022-12-07T03:19:05;13.48;;;3.97;;
2187;SDS011;1100;52.014;8.540;2022-12-07T03:21:34;12.48;;;4.53;;
2187;SDS011;1100;52.014;8.540;2022-12-07T03:24:05;11.73;;;4.32;;
2187;SDS011;1100;52.014;8.540;2022-12-07T03:26:36;15.00;;;4.13;;
2187;SDS011;1100;52.014;8.540;2022-12-07T03:29:09;17.38;;;4.30;;
2187;SDS011;1100;52.014;8.540;2022-12-07T03:31:43;13.52;;;4.20;;
2187;SDS011;1100;52.014;8.540;2022-12-07T03:34:25;12.20;;;4.50;;
2187;SDS011;1100;52.014;8.540;2022-12-07T03:39:34;12.93;;;5.47;;
2187;SDS011;1100;52.014;8.540;2022-12-07T03:42:06;14.10;;;4.95;;
2187;SDS011;1100;52.014;8.540;2022-12-07T03:44:34;14.77;;;5.03;;
2187;SDS011;1100;52.014;8.540;2022-12-07T03:47:02;14.07;;;4.35;;
2187;SDS011;1100;52.014;8.540;2022-12-07T03:49:43;9.68;;;4.32;;
2187;SDS011;1100;52.014;8.540;2022-12-07T03:54:51;12.50;;;4.50;;
2187;SDS011;1100;52.014;8.540;2022-12-07T03:57:24;13.93;;;4.38;;
2187;SDS011;1100;52.014;8.540;2022-12-07T03:59:51;11.93;;;4.43;;
2187;SDS011;1100;52.014;8.540;2022-12-07T04:02:18;11.32;;;4.38;;
2187;SDS011;1100;52.014;8.540;2022-12-07T04:04:44;9.83;;;4.13;;
2187;SDS011;1100;52.014;8.540;2022-12-07T04:07:10;15.27;;;4.93;;
2187;SDS011;1100;52.014;8.540;2022-12-07T04:09:36;12.60;;;4.10;;
2187;SDS011;1100;52.014;8.540;2022-12-07T04:12:01;14.30;;;4.60;;
2187;SDS011;1100;52.014;8.540;2022-12-07T04:14:26;14.13;;;4.77;;
2187;SDS011;1100;52.014;8.540;2022-12-07T04:16:53;14.30;;;4.33;;
2187;SDS011;1100;52.014;8.540;2022-12-07T04:19:23;14.30;;;4.93;;
2187;SDS011;1100;52.014;8.540;2022-12-07T04:21:50;11.98;;;4.13;;
2187;SDS011;1100;52.014;8.540;2022-12-07T04:24:16;13.07;;;5.00;;
2187;SDS011;1100;52.014;8.540;2022-12-07T04:26:41;15.05;;;4.72;;
2187;SDS011;1100;52.014;8.540;2022-12-07T04:29:08;10.43;;;4.40;;
2187;SDS011;1100;52.014;8.540;2022-12-07T04:31:34;13.20;;;4.72;;
2187;SDS011;1100;52.014;8.540;2022-12-07T04:34:00;12.00;;;4.47;;
2187;SDS011;1100;52.014;8.540;2022-12-07T04:36:25;10.83;;;4.07;;
2187;SDS011;1100;52.014;8.540;2022-12-07T04:38:52;11.60;;;4.07;;
2187;SDS011;1100;52.014;8.540;2022-12-07T04:41:19;13.27;;;4.30;;
2187;SDS011;1100;52.014;8.540;2022-12-07T04:43:51;12.13;;;4.20;;
2187;SDS011;1100;52.014;8.540;2022-12-07T04:46:21;13.05;;;4.40;;
2187;SDS011;1100;52.014;8.540;2022-12-07T04:48:47;14.60;;;4.38;;
2187;SDS011;1100;52.014;8.540;2022-12-07T04:51:14;13.20;;;4.00;;
2187;SDS011;1100;52.014;8.540;2022-12-07T04:53:43;14.25;;;4.75;;
2187;SDS011;1100;52.014;8.540;2022-12-07T04:56:08;12.83;;;4.43;;
2187;SDS011;1100;52.014;8.540;2022-12-07T04:58:33;11.10;;;3.63;;
2187;SDS011;1100;52.014;8.540;2022-12-07T05:00:59;13.60;;;4.23;;
2187;SDS011;1100;52.014;8.540;2022-12-07T05:03:24;15.33;;;4.43;;
2187;SDS011;1100;52.014;8.540;2022-12-07T05:05:49;13.43;;;4.30;;
2187;SDS011;1100;52.014;8.540;2022-12-07T05:08:14;14.77;;;4.43;;
2187;SDS011;1100;52.014;8.540;2022-12-07T05:10:40;13.77;;;4.60;;
2187;SDS011;1100;52.014;8.540;2022-12-07T05:13:05;11.70;;;3.87;;
2187;SDS011;1100;52.014;8.540;2022-12-07T05:15:30;12.53;;;4.37;;
2187;SDS011;1100;52.014;8.540;2022-12-07T05:17:56;14.87;;;4.60;;
2187;SDS011;1100;52.014;8.540;2022-12-07T05:20:21;12.03;;;3.67;;
2187;SDS011;1100;52.014;8.540;2022-12-07T05:22:46;11.37;;;4.03;;
2187;SDS011;1100;52.014;8.540;2022-12-07T05:25:12;12.67;;;4.23;;
2187;SDS011;1100;52.014;8.540;2022-12-07T05:27:37;14.37;;;4.50;;
2187;SDS011;1100;52.014;8.540;2022-12-07T05:30:03;12.07;;;4.10;;
2187;SDS011;1100;52.014;8.540;2022-12-07T05:32:29;11.80;;;3.90;;
2187;SDS011;1100;52.014;8.540;2022-12-07T05:34:54;15.90;;;4.17;;
2187;SDS011;1100;52.014;8.540;2022-12-07T05:37:20;13.27;;;4.20;;
2187;SDS011;1100;52.014;8.540;2022-12-07T05:39:45;12.30;;;4.35;;
2187;SDS011;1100;52.014;8.540;2022-12-07T05:42:10;12.77;;;4.10;;
2187;SDS011;1100;52.014;8.540;2022-12-07T05:44:39;12.02;;;3.80;;
2187;SDS011;1100;52.014;8.540;2022-12-07T05:47:05;11.07;;;3.63;;
2187;SDS011;1100;52.014;8.540;2022-12-07T05:49:30;10.50;;;4.07;;
2187;SDS011;1100;52.014;8.540;2022-12-07T05:51:56;12.67;;;4.03;;
2187;SDS011;1100;52.014;8.540;2022-12-07T05:54:21;14.87;;;3.57;;
2187;SDS011;1100;52.014;8.540;2022-12-07T05:56:46;11.13;;;4.07;;
2187;SDS011;1100;52.014;8.540;2022-12-07T05:59:12;14.40;;;3.67;;
2187;SDS011;1100;52.014;8.540;2022-12-07T06:04:21;11.53;;;3.80;;
2187;SDS011;1100;52.014;8.540;2022-12-07T06:06:47;11.80;;;3.67;;
2187;SDS011;1100;52.014;8.540;2022-12-07T06:09:13;10.30;;;3.20;;
2187;SDS011;1100;52.014;8.540;2022-12-07T06:11:39;13.57;;;3.07;;
2187;SDS011;1100;52.014;8.540;2022-12-07T06:14:23;10.13;;;3.05;;
2187;SDS011;1100;52.014;8.540;2022-12-07T06:16:49;10.50;;;2.97;;
2187;SDS011;1100;52.014;8.540;2022-12-07T06:19:14;11.60;;;3.60;;
2187;SDS011;1100;52.014;8.540;2022-12-07T06:21:40;11.00;;;3.70;;
2187;SDS011;1100;52.014;8.540;2022-12-07T06:24:05;9.73;;;3.97;;
2187;SDS011;1100;52.014;8.540;2022-12-07T06:26:31;10.47;;;3.27;;
2187;SDS011;1100;52.014;8.540;2022-12-07T06:28:56;13.03;;;3.17;;
2187;SDS011;1100;52.014;8.540;2022-12-07T06:31:21;12.60;;;3.33;;
2187;SDS011;1100;52.014;8.540;2022-12-07T06:33:47;10.03;;;3.70;;
2187;SDS011;1100;52.014;8.540;2022-12-07T06:36:12;11.20;;;3.13;;
2187;SDS011;1100;52.014;8.540;2022-12-07T06:38:38;9.52;;;3.40;;
2187;SDS011;1100;52.014;8.540;2022-12-07T06:41:04;10.43;;;3.30;;
2187;SDS011;1100;52.014;8.540;2022-12-07T06:43:29;9.70;;;3.20;;
2187;SDS011;1100;52.014;8.540;2022-12-07T06:45:54;9.60;;;3.20;;
2187;SDS011;1100;52.014;8.540;2022-12-07T06:48:23;14.63;;;3.07;;
2187;SDS011;1100;52.014;8.540;2022-12-07T06:50:48;17.92;;;3.80;;
2187;SDS011;1100;52.014;8.540;2022-12-07T06:53:14;13.87;;;3.23;;
2187;SDS011;1100;52.014;8.540;2022-12-07T06:55:41;9.32;;;3.22;;
2187;SDS011;1100;52.014;8.540;2022-12-07T06:58:07;8.43;;;2.80;;
2187;SDS011;1100;52.014;8.540;2022-12-07T07:00:32;9.60;;;3.00;;
2187;SDS011;1100;52.014;8.540;2022-12-07T07:02:59;10.05;;;3.30;;
2187;SDS011;1100;52.014;8.540;2022-12-07T07:05:25;11.03;;;2.97;;
2187;SDS011;1100;52.014;8.540;2022-12-07T07:07:50;10.63;;;3.10;;
2187;SDS011;1100;52.014;8.540;2022-12-07T07:10:15;11.17;;;2.97;;
2187;SDS011;1100;52.014;8.540;2022-12-07T07:12:41;8.75;;;3.05;;
2187;SDS011;1100;52.014;8.540;2022-12-07T07:15:06;10.50;;;2.90;;
2187;SDS011;1100;52.014;8.540;2022-12-07T07:17:32;9.33;;;2.80;;
2187;SDS011;1100;52.014;8.540;2022-12-07T07:19:57;10.38;;;2.70;;
2187;SDS011;1100;52.014;8.540;2022-12-07T07:22:22;10.73;;;2.73;;
2187;SDS011;1100;52.014;8.540;2022-12-07T07:24:48;11.17;;;2.83;;
2187;SDS011;1100;52.014;8.540;2022-12-07T07:27:13;10.47;;;3.13;;
2187;SDS011;1100;52.014;8.540;2022-12-07T07:29:38;11.97;;;3.17;;
2187;SDS011;1100;52.014;8.540;2022-12-07T07:32:04;13.57;;;3.13;;
2187;SDS011;1100;52.014;8.540;2022-12-07T07:34:29;11.30;;;2.87;;
2187;SDS011;1100;52.014;8.540;2022-12-07T07:36:54;10.50;;;2.93;;
2187;SDS011;1100;52.014;8.540;2022-12-07T07:39:20;9.03;;;2.77;;
2187;SDS011;1100;52.014;8.540;2022-12-07T07:41:46;11.73;;;3.40;;
2187;SDS011;1100;52.014;8.540;2022-12-07T07:44:14;10.03;;;2.80;;
2187;SDS011;1100;52.014;8.540;2022-12-07T07:46:39;9.35;;;2.67;;
2187;SDS011;1100;52.014;8.540;2022-12-07T07:49:04;10.10;;;2.50;;
2187;SDS011;1100;52.014;8.540;2022-12-07T07:51:30;14.47;;;3.53;;
2187;SDS011;1100;52.014;8.540;2022-12-07T07:53:55;7.63;;;2.65;;
2187;SDS011;1100;52.014;8.540;2022-12-07T07:56:20;12.13;;;2.60;;
2187;SDS011;1100;52.014;8.540;2022-12-07T07:58:45;8.13;;;2.70;;
2187;SDS011;1100;52.014;8.540;2022-12-07T08:01:11;7.43;;;2.53;;
2187;SDS011;1100;52.014;8.540;2022-12-07T08:03:38;8.88;;;2.47;;
2187;SDS011;1100;52.014;8.540;2022-12-07T08:06:04;9.40;;;2.77;;
2187;SDS011;1100;52.014;8.540;2022-12-07T08:08:30;10.50;;;2.60;;
2187;SDS011;1100;52.014;8.540;2022-12-07T08:10:56;13.10;;;2.40;;
2187;SDS011;1100;52.014;8.540;2022-12-07T08:13:21;7.63;;;2.50;;
2187;SDS011;1100;52.014;8.540;2022-12-07T08:15:47;11.00;;;2.73;;
2187;SDS011;1100;52.014;8.540;2022-12-07T08:18:13;7.63;;;1.77;;
2187;SDS011;1100;52.014;8.540;2022-12-07T08:20:41;9.95;;;2.50;;
2187;SDS011;1100;52.014;8.540;2022-12-07T08:23:07;13.98;;;2.65;;
2187;SDS011;1100;52.014;8.540;2022-12-07T08:25:35;10.05;;;2.28;;
2187;SDS011;1100;52.014;8.540;2022-12-07T08:28:00;10.67;;;2.50;;
2187;SDS011;1100;52.014;8.540;2022-12-07T08:30:26;11.10;;;2.20;;
2187;SDS011;1100;52.014;8.540;2022-12-07T08:32:53;10.77;;;2.10;;
2187;SDS011;1100;52.014;8.540;2022-12-07T08:35:18;7.47;;;2.30;;
2187;SDS011;1100;52.014;8.540;2022-12-07T08:37:44;9.87;;;2.30;;
2187;SDS011;1100;52.014;8.540;2022-12-07T08:40:11;8.30;;;2.10;;
2187;SDS011;1100;52.014;8.540;2022-12-07T08:42:40;9.77;;;2.20;;
2187;SDS011;1100;52.014;8.540;2022-12-07T08:45:10;7.38;;;2.30;;
2187;SDS011;1100;52.014;8.540;2022-12-07T08:47:38;8.85;;;2.33;;
2187;SDS011;1100;52.014;8.540;2022-12-07T08:50:06;7.43;;;2.22;;
2187;SDS011;1100;52.014;8.540;2022-12-07T08:52:33;13.60;;;3.00;;
2187;SDS011;1100;52.014;8.540;2022-12-07T08:55:00;9.77;;;1.97;;
2187;SDS011;1100;52.014;8.540;2022-12-07T08:57:27;8.85;;;1.92;;
2187;SDS011;1100;52.014;8.540;2022-12-07T08:59:53;6.72;;;1.42;;
2187;SDS011;1100;52.014;8.540;2022-12-07T09:02:19;9.27;;;1.47;;
2187;SDS011;1100;52.014;8.540;2022-12-07T09:04:44;6.88;;;1.48;;
2187;SDS011;1100;52.014;8.540;2022-12-07T09:07:10;9.33;;;1.20;;
2187;SDS011;1100;52.014;8.540;2022-12-07T09:09:35;9.17;;;1.37;;
2187;SDS011;1100;52.014;8.540;2022-12-07T09:12:01;7.35;;;1.50;;
2187;SDS011;1100;52.014;8.540;2022-12-07T09:14:29;10.70;;;1.30;;
2187;SDS011;1100;52.014;8.540;2022-12-07T09:16:54;6.93;;;1.30;;
2187;SDS011;1100;52.014;8.540;2022-12-07T09:19:20;7.60;;;1.60;;
2187;SDS011;1100;52.014;8.540;2022-12-07T09:21:45;8.83;;;1.20;;
2187;SDS011;1100;52.014;8.540;2022-12-07T09:24:11;6.27;;;1.10;;
2187;SDS011;1100;52.014;8.540;2022-12-07T09:26:37;7.65;;;1.33;;
2187;SDS011;1100;52.014;8.540;2022-12-07T09:29:04;8.68;;;1.35;;
2187;SDS011;1100;52.014;8.540;2022-12-07T09:31:29;7.97;;;1.33;;
2187;SDS011;1100;52.014;8.540;2022-12-07T09:33:55;6.80;;;1.20;;
2187;SDS011;1100;52.014;8.540;2022-12-07T09:36:22;6.20;;;1.08;;
2187;SDS011;1100;52.014;8.540;2022-12-07T09:38:47;8.87;;;1.67;;
2187;SDS011;1100;52.014;8.540;2022-12-07T09:41:12;6.47;;;1.40;;
2187;SDS011;1100;52.014;8.540;2022-12-07T09:43:38;6.63;;;1.40;;
2187;SDS011;1100;52.014;8.540;2022-12-07T09:46:05;8.70;;;1.50;;
2187;SDS011;1100;52.014;8.540;2022-12-07T09:48:32;7.50;;;2.13;;
2187;SDS011;1100;52.014;8.540;2022-12-07T09:51:01;7.57;;;1.47;;
2187;SDS011;1100;52.014;8.540;2022-12-07T09:53:34;7.18;;;1.20;;
2187;SDS011;1100;52.014;8.540;2022-12-07T09:56:02;5.95;;;1.30;;
2187;SDS011;1100;52.014;8.540;2022-12-07T09:58:29;4.70;;;1.00;;
2187;SDS011;1100;52.014;8.540;2022-12-07T10:01:09;7.82;;;1.33;;
2187;SDS011;1100;52.014;8.540;2022-12-07T10:03:38;8.30;;;1.30;;
2187;SDS011;1100;52.014;8.540;2022-12-07T10:06:05;8.20;;;1.20;;
2187;SDS011;1100;52.014;8.540;2022-12-07T10:08:32;5.07;;;1.02;;
2187;SDS011;1100;52.014;8.540;2022-12-07T10:10:59;5.55;;;1.27;;
2187;SDS011;1100;52.014;8.540;2022-12-07T10:13:36;7.28;;;1.48;;
2187;SDS011;1100;52.014;8.540;2022-12-07T10:16:02;5.97;;;0.90;;
2187;SDS011;1100;52.014;8.540;2022-12-07T10:18:33;6.75;;;1.00;;
2187;SDS011;1100;52.014;8.540;2022-12-07T10:23:34;8.30;;;1.33;;
2187;SDS011;1100;52.014;8.540;2022-12-07T10:28:52;8.52;;;1.40;;
2187;SDS011;1100;52.014;8.540;2022-12-07T10:31:19;5.13;;;1.10;;
2187;SDS011;1100;52.014;8.540;2022-12-07T10:33:53;5.63;;;1.00;;
2187;SDS011;1100;52.014;8.540;2022-12-07T10:36:37;5.32;;;1.10;;
2187;SDS011;1100;52.014;8.540;2022-12-07T10:39:14;7.40;;;1.15;;
2187;SDS011;1100;52.014;8.540;2022-12-07T10:41:56;12.25;;;1.52;;
2187;SDS011;1100;52.014;8.540;2022-12-07T10:44:22;5.43;;;0.82;;
2187;SDS011;1100;52.014;8.540;2022-12-07T10:53:18;7.60;;;1.20;;
2187;SDS011;1100;52.014;8.540;2022-12-07T11:04:17;6.70;;;1.05;;
2187;SDS011;1100;52.014;8.540;2022-12-07T11:07:02;8.35;;;1.08;;
2187;SDS011;1100;52.014;8.540;2022-12-07T11:10:22;7.00;;;1.20;;
2187;SDS011;1100;52.014;8.540;2022-12-07T11:17:44;6.40;;;1.13;;
2187;SDS011;1100;52.014;8.540;2022-12-07T11:23:39;7.32;;;1.08;;
2187;SDS011;1100;52.014;8.540;2022-12-07T11:29:13;3.70;;;0.80;;
2187;SDS011;1100;52.014;8.540;2022-12-07T11:34:39;5.97;;;0.80;;
2187;SDS011;1100;52.014;8.540;2022-12-07T11:37:11;5.40;;;0.80;;
2187;SDS011;1100;52.014;8.540;2022-12-07T11:39:54;7.28;;;0.77;;
2187;SDS011;1100;52.014;8.540;2022-12-07T11:42:26;8.53;;;0.53;;
2187;SDS011;1100;52.014;8.540;2022-12-07T11:44:57;4.97;;;0.70;;
2187;SDS011;1100;52.014;8.540;2022-12-07T11:55:50;6.93;;;0.90;;
2187;SDS011;1100;52.014;8.540;2022-12-07T11:58:22;7.05;;;0.70;;
2187;SDS011;1100;52.014;8.540;2022-12-07T12:06:39;5.68;;;0.60;;
2187;SDS011;1100;52.014;8.540;2022-12-07T12:20:15;5.25;;;0.50;;
2187;SDS011;1100;52.014;8.540;2022-12-07T12:28:15;9.13;;;0.70;;
2187;SDS011;1100;52.014;8.540;2022-12-07T12:31:05;6.88;;;0.60;;
2187;SDS011;1100;52.014;8.540;2022-12-07T12:33:34;5.15;;;0.50;;
2187;SDS011;1100;52.014;8.540;2022-12-07T12:51:43;5.80;;;0.70;;
2187;SDS011;1100;52.014;8.540;2022-12-07T12:54:26;6.20;;;0.60;;
2187;SDS011;1100;52.014;8.540;2022-12-07T12:59:57;6.55;;;0.40;;
2187;SDS011;1100;52.014;8.540;2022-12-07T13:17:58;4.78;;;0.63;;
2187;SDS011;1100;52.014;8.540;2022-12-07T13:20:45;4.70;;;0.50;;
2187;SDS011;1100;52.014;8.540;2022-12-07T13:23:13;5.50;;;0.40;;
2187;SDS011;1100;52.014;8.540;2022-12-07T13:25:49;7.20;;;0.80;;
2187;SDS011;1100;52.014;8.540;2022-12-07T13:28:19;8.80;;;0.80;;
2187;SDS011;1100;52.014;8.540;2022-12-07T13:30:50;4.18;;;0.50;;
2187;SDS011;1100;52.014;8.540;2022-12-07T13:33:24;6.75;;;0.70;;
2187;SDS011;1100;52.014;8.540;2022-12-07T13:35:55;11.15;;;2.22;;
2187;SDS011;1100;52.014;8.540;2022-12-07T13:38:34;3.75;;;0.68;;
2187;SDS011;1100;52.014;8.540;2022-12-07T13:41:13;6.83;;;0.37;;
2187;SDS011;1100;52.014;8.540;2022-12-07T13:43:43;6.70;;;0.40;;
2187;SDS011;1100;52.014;8.540;2022-12-07T13:46:14;4.85;;;0.50;;
2187;SDS011;1100;52.014;8.540;2022-12-07T13:48:44;5.75;;;0.40;;
2187;SDS011;1100;52.014;8.540;2022-12-07T13:51:21;6.47;;;0.52;;
2187;SDS011;1100;52.014;8.540;2022-12-07T13:54:01;7.10;;;0.70;;
2187;SDS011;1100;52.014;8.540;2022-12-07T13:56:34;6.43;;;0.80;;
2187;SDS011;1100;52.014;8.540;2022-12-07T13:59:00;5.53;;;0.70;;
2187;SDS011;1100;52.014;8.540;2022-12-07T14:01:26;4.63;;;0.47;;
2187;SDS011;1100;52.014;8.540;2022-12-07T14:03:55;10.02;;;0.70;;
2187;SDS011;1100;52.014;8.540;2022-12-07T14:06:23;10.37;;;0.80;;
2187;SDS011;1100;52.014;8.540;2022-12-07T14:08:50;6.68;;;0.80;;
2187;SDS011;1100;52.014;8.540;2022-12-07T14:11:30;8.80;;;0.70;;
2187;SDS011;1100;52.014;8.540;2022-12-07T14:13:56;5.32;;;1.13;;
2187;SDS011;1100;52.014;8.540;2022-12-07T14:16:31;4.55;;;0.50;;
2187;SDS011;1100;52.014;8.540;2022-12-07T14:19:00;5.37;;;0.80;;
2187;SDS011;1100;52.014;8.540;2022-12-07T14:21:29;7.32;;;0.57;;
2187;SDS011;1100;52.014;8.540;2022-12-07T14:26:40;6.80;;;0.70;;
2187;SDS011;1100;52.014;8.540;2022-12-07T14:29:18;6.13;;;0.88;;
2187;SDS011;1100;52.014;8.540;2022-12-07T14:31:45;5.87;;;0.80;;
2187;SDS011;1100;52.014;8.540;2022-12-07T14:34:11;5.80;;;0.90;;
2187;SDS011;1100;52.014;8.540;2022-12-07T14:36:37;6.15;;;0.70;;
2187;SDS011;1100;52.014;8.540;2022-12-07T14:39:03;6.77;;;0.63;;
2187;SDS011;1100;52.014;8.540;2022-12-07T14:41:28;6.63;;;0.53;;
2187;SDS011;1100;52.014;8.540;2022-12-07T14:44:12;8.25;;;0.82;;
2187;SDS011;1100;52.014;8.540;2022-12-07T14:46:38;11.00;;;0.80;;
2187;SDS011;1100;52.014;8.540;2022-12-07T14:49:03;8.20;;;0.60;;
2187;SDS011;1100;52.014;8.540;2022-12-07T14:51:28;5.53;;;0.57;;
2187;SDS011;1100;52.014;8.540;2022-12-07T14:53:54;4.40;;;0.50;;
2187;SDS011;1100;52.014;8.540;2022-12-07T14:56:20;8.70;;;0.70;;
2187;SDS011;1100;52.014;8.540;2022-12-07T14:58:45;4.60;;;0.67;;
2187;SDS011;1100;52.014;8.540;2022-12-07T15:01:13;6.65;;;0.80;;
2187;SDS011;1100;52.014;8.540;2022-12-07T15:03:38;6.60;;;0.80;;
2187;SDS011;1100;52.014;8.540;2022-12-07T15:06:04;4.63;;;0.57;;
2187;SDS011;1100;52.014;8.540;2022-12-07T15:08:30;6.07;;;0.73;;
2187;SDS011;1100;52.014;8.540;2022-12-07T15:10:55;8.10;;;0.90;;
2187;SDS011;1100;52.014;8.540;2022-12-07T15:13:20;7.23;;;0.77;;
2187;SDS011;1100;52.014;8.540;2022-12-07T15:16:04;6.93;;;0.60;;
2187;SDS011;1100;52.014;8.540;2022-12-07T15:18:30;9.15;;;0.75;;
2187;SDS011;1100;52.014;8.540;2022-12-07T15:20:55;4.40;;;0.50;;
2187;SDS011;1100;52.014;8.540;2022-12-07T15:23:20;4.60;;;0.70;;
2187;SDS011;1100;52.014;8.540;2022-12-07T15:25:47;4.67;;;0.53;;
2187;SDS011;1100;52.014;8.540;2022-12-07T15:28:13;4.35;;;0.70;;
2187;SDS011;1100;52.014;8.540;2022-12-07T15:30:40;3.63;;;0.40;;
2187;SDS011;1100;52.014;8.540;2022-12-07T15:33:07;3.57;;;0.50;;
2187;SDS011;1100;52.014;8.540;2022-12-07T15:35:42;5.37;;;0.50;;
2187;SDS011;1100;52.014;8.540;2022-12-07T15:38:09;6.70;;;0.80;;
2187;SDS011;1100;52.014;8.540;2022-12-07T15:40:35;7.55;;;0.80;;
2187;SDS011;1100;52.014;8.540;2022-12-07T15:43:01;6.43;;;0.83;;
2187;SDS011;1100;52.014;8.540;2022-12-07T15:45:27;7.28;;;1.15;;
2187;SDS011;1100;52.014;8.540;2022-12-07T15:47:52;9.13;;;0.80;;
2187;SDS011;1100;52.014;8.540;2022-12-07T15:50:26;8.50;;;1.00;;
2187;SDS011;1100;52.014;8.540;2022-12-07T15:52:52;5.80;;;0.90;;
2187;SDS011;1100;52.014;8.540;2022-12-07T15:55:17;7.83;;;0.80;;
2187;SDS011;1100;52.014;8.540;2022-12-07T15:57:42;4.97;;;0.83;;
2187;SDS011;1100;52.014;8.540;2022-12-07T16:00:08;7.97;;;1.23;;
2187;SDS011;1100;52.014;8.540;2022-12-07T16:02:36;8.45;;;1.02;;
2187;SDS011;1100;52.014;8.540;2022-12-07T16:05:02;7.72;;;1.10;;
2187;SDS011;1100;52.014;8.540;2022-12-07T16:07:27;6.90;;;1.10;;
2187;SDS011;1100;52.014;8.540;2022-12-07T16:09:53;6.73;;;1.20;;
2187;SDS011;1100;52.014;8.540;2022-12-07T16:12:18;6.82;;;1.38;;
2187;SDS011;1100;52.014;8.540;2022-12-07T16:14:43;7.20;;;1.10;;
2187;SDS011;1100;52.014;8.540;2022-12-07T16:17:09;6.50;;;0.40;;
2187;SDS011;1100;52.014;8.540;2022-12-07T16:19:35;3.23;;;0.30;;
2187;SDS011;1100;52.014;8.540;2022-12-07T16:22:01;2.92;;;0.30;;
2187;SDS011;1100;52.014;8.540;2022-12-07T16:24:27;3.95;;;0.50;;
2187;SDS011;1100;52.014;8.540;2022-12-07T16:26:53;2.53;;;0.20;;
2187;SDS011;1100;52.014;8.540;2022-12-07T16:29:19;3.60;;;0.20;;
2187;SDS011;1100;52.014;8.540;2022-12-07T16:31:45;1.85;;;0.13;;
2187;SDS011;1100;52.014;8.540;2022-12-07T16:34:11;2.10;;;0.22;;
2187;SDS011;1100;52.014;8.540;2022-12-07T16:36:37;3.27;;;0.23;;
2187;SDS011;1100;52.014;8.540;2022-12-07T16:39:02;4.70;;;0.70;;
2187;SDS011;1100;52.014;8.540;2022-12-07T16:41:28;3.63;;;0.63;;
2187;SDS011;1100;52.014;8.540;2022-12-07T16:43:54;4.73;;;0.97;;
2187;SDS011;1100;52.014;8.540;2022-12-07T16:46:19;6.77;;;1.17;;
2187;SDS011;1100;52.014;8.540;2022-12-07T16:48:44;9.27;;;1.47;;
2187;SDS011;1100;52.014;8.540;2022-12-07T16:51:11;4.17;;;1.20;;
2187;SDS011;1100;52.014;8.540;2022-12-07T16:53:39;7.18;;;1.25;;
2187;SDS011;1100;52.014;8.540;2022-12-07T16:56:09;6.90;;;1.20;;
2187;SDS011;1100;52.014;8.540;2022-12-07T16:58:39;6.90;;;1.33;;
2187;SDS011;1100;52.014;8.540;2022-12-07T17:01:12;6.40;;;1.23;;
2187;SDS011;1100;52.014;8.540;2022-12-07T17:03:42;6.95;;;1.55;;
2187;SDS011;1100;52.014;8.540;2022-12-07T17:06:15;8.88;;;2.50;;
2187;SDS011;1100;52.014;8.540;2022-12-07T17:08:42;7.05;;;1.95;;
2187;SDS011;1100;52.014;8.540;2022-12-07T17:11:19;6.73;;;1.83;;
2187;SDS011;1100;52.014;8.540;2022-12-07T17:13:46;5.88;;;1.48;;
2187;SDS011;1100;52.014;8.540;2022-12-07T17:16:30;7.25;;;1.73;;
2187;SDS011;1100;52.014;8.540;2022-12-07T17:18:56;8.50;;;1.38;;
2187;SDS011;1100;52.014;8.540;2022-12-07T17:21:21;6.57;;;1.83;;
2187;SDS011;1100;52.014;8.540;2022-12-07T17:23:47;5.95;;;1.55;;
2187;SDS011;1100;52.014;8.540;2022-12-07T17:26:14;7.87;;;1.50;;
2187;SDS011;1100;52.014;8.540;2022-12-07T17:28:41;10.57;;;1.75;;
2187;SDS011;1100;52.014;8.540;2022-12-07T17:31:08;7.63;;;2.20;;
2187;SDS011;1100;52.014;8.540;2022-12-07T17:33:35;9.38;;;2.10;;
2187;SDS011;1100;52.014;8.540;2022-12-07T17:36:01;9.45;;;2.20;;
2187;SDS011;1100;52.014;8.540;2022-12-07T17:38:34;11.77;;;2.50;;